Time;durP1;ratioP1;P1;durP2;ratioP2;P2;SDS_P1;SDS_P2;PMS_P1;PMS_P2;Temp;Humidity;BMP_temperature;BMP_pressure;BME280_temperature;BME280_humidity;BME280_pressure;Samples;Min_cycle;Max_cycle;Signal;HPM_P1;HPM_P2
2023/03/06 00:01:37;;;;;;;6.85;4.68;;;;;;;-144.57;100.00;62443.72;5092258;28;20048;-61
2023/03/06 00:04:03;;;;;;;6.45;4.40;;;;;;;-144.57;100.00;62443.72;5093425;28;20440;-61
2023/03/06 00:06:28;;;;;;;8.50;4.82;;;;;;;-144.57;100.00;62443.72;5093354;28;20127;-62
2023/03/06 00:08:54;;;;;;;7.45;4.65;;;;;;;-144.57;100.00;62443.72;5091789;28;20047;-61
2023/03/06 00:11:20;;;;;;;7.63;4.30;;;;;;;-144.57;100.00;62443.72;5093176;28;20475;-61
2023/03/06 00:13:45;;;;;;;7.90;4.65;;;;;;;-144.57;100.00;62443.72;5092870;28;20070;-62
2023/03/06 00:16:11;;;;;;;6.70;4.03;;;;;;;-144.57;100.00;62443.72;5092935;28;20143;-61
2023/03/06 00:18:37;;;;;;;8.02;4.63;;;;;;;-144.57;100.00;62443.72;5092442;28;20092;-62
2023/03/06 00:21:06;;;;;;;7.00;4.15;;;;;;;-144.57;100.00;62443.72;5091004;28;20052;-61
2023/03/06 00:23:31;;;;;;;6.13;3.88;;;;;;;-144.57;100.00;62443.72;5091952;28;20044;-61
2023/03/06 00:25:57;;;;;;;7.50;4.15;;;;;;;-144.57;100.00;62443.72;5091453;28;20043;-61
2023/03/06 00:28:22;;;;;;;6.88;4.13;;;;;;;-144.57;100.00;62443.72;5090401;28;20451;-61
2023/03/06 00:30:48;;;;;;;7.05;3.85;;;;;;;-144.57;100.00;62443.72;5091123;28;20044;-61
2023/03/06 00:33:14;;;;;;;5.68;3.97;;;;;;;-144.57;100.00;62443.72;5092406;28;20089;-61
2023/03/06 00:35:41;;;;;;;8.52;4.13;;;;;;;-144.57;100.00;62443.72;5092664;28;20040;-60
2023/03/06 00:38:07;;;;;;;7.93;4.65;;;;;;;-144.57;100.00;62443.72;5091161;28;20123;-61
2023/03/06 00:40:33;;;;;;;7.13;4.25;;;;;;;-144.57;100.00;62443.72;5090953;28;20044;-63
2023/03/06 00:42:58;;;;;;;8.52;4.30;;;;;;;-144.57;100.00;62443.72;5074062;28;20232;-62
2023/03/06 00:45:24;;;;;;;5.68;3.53;;;;;;;-144.57;100.00;62443.72;5092271;28;20063;-63
2023/03/06 00:47:50;;;;;;;6.88;3.95;;;;;;;-144.57;100.00;62443.72;5091230;28;20083;-63
2023/03/06 00:50:15;;;;;;;7.43;4.32;;;;;;;-144.57;100.00;62443.72;5092597;28;20134;-63
2023/03/06 00:52:41;;;;;;;6.25;3.53;;;;;;;-144.57;100.00;62443.72;5074206;28;20059;-61
2023/03/06 00:55:07;;;;;;;5.88;3.65;;;;;;;-144.57;100.00;62443.72;5074141;28;20503;-65
2023/03/06 00:57:33;;;;;;;7.45;3.53;;;;;;;-144.57;100.00;62443.72;5091087;28;20051;-62
2023/03/06 00:59:59;;;;;;;6.30;3.45;;;;;;;-144.57;100.00;62443.72;5091898;28;20048;-61
2023/03/06 01:02:24;;;;;;;6.50;3.60;;;;;;;-144.57;100.00;62443.72;5090942;28;20191;-61
2023/03/06 01:04:53;;;;;;;5.90;3.40;;;;;;;-144.57;100.00;62443.72;5073834;28;20075;-61
2023/03/06 01:07:18;;;;;;;4.63;3.35;;;;;;;-144.57;100.00;62443.72;5090954;28;20109;-62
2023/03/06 01:09:44;;;;;;;5.88;3.42;;;;;;;-144.57;100.00;62443.72;5091903;28;20047;-62
2023/03/06 01:12:10;;;;;;;4.55;3.15;;;;;;;-144.57;100.00;62443.72;5090884;28;20059;-62
2023/03/06 01:14:36;;;;;;;5.80;3.58;;;;;;;-144.57;100.00;62443.72;5091785;28;20457;-62
2023/03/06 01:17:01;;;;;;;6.15;3.60;;;;;;;-144.57;100.00;62443.72;5091644;28;20048;-61
2023/03/06 01:19:27;;;;;;;7.55;3.33;;;;;;;-144.57;100.00;62443.72;5090793;28;20404;-60
2023/03/06 01:21:52;;;;;;;5.22;3.38;;;;;;;-144.57;100.00;62443.72;5090703;28;20501;-62
2023/03/06 01:24:18;;;;;;;3.80;2.90;;;;;;;-144.57;100.00;62443.72;5091558;28;20097;-61
2023/03/06 01:26:44;;;;;;;6.85;3.30;;;;;;;-144.57;100.00;62443.72;5090516;28;20044;-61
2023/03/06 01:29:09;;;;;;;4.97;3.08;;;;;;;-144.57;100.00;62443.72;5091701;28;20039;-62
2023/03/06 01:31:35;;;;;;;4.40;3.25;;;;;;;-144.57;100.00;62443.72;5090441;28;20055;-61
2023/03/06 01:34:01;;;;;;;4.72;3.20;;;;;;;-144.57;100.00;62443.72;5090162;28;20087;-61
2023/03/06 01:36:27;;;;;;;6.10;3.42;;;;;;;-144.57;100.00;62443.72;5090428;28;20067;-60
2023/03/06 01:38:52;;;;;;;6.00;3.85;;;;;;;-144.57;100.00;62443.72;5090475;28;20044;-61
2023/03/06 01:41:20;;;;;;;4.40;3.00;;;;;;;-144.57;100.00;62443.72;5091676;28;20131;-61
2023/03/06 01:43:46;;;;;;;4.95;3.08;;;;;;;-144.57;100.00;62443.72;5091330;28;20047;-60
2023/03/06 01:46:32;;;;;;;5.22;3.20;;;;;;;-144.57;100.00;62443.72;5090255;28;20104;-62
2023/03/06 01:48:58;;;;;;;5.68;2.90;;;;;;;-144.57;100.00;62443.72;5090145;28;20044;-62
2023/03/06 01:51:38;;;;;;;7.70;3.35;;;;;;;-144.57;100.00;62443.72;5073362;28;20052;-61
2023/03/06 01:54:08;;;;;;;4.40;3.13;;;;;;;-144.57;100.00;62443.72;5090044;28;20044;-62
2023/03/06 01:56:34;;;;;;;5.70;3.50;;;;;;;-144.57;100.00;62443.72;5090142;28;20470;-61
2023/03/06 01:59:00;;;;;;;3.67;2.70;;;;;;;-144.57;100.00;62443.72;5089676;28;20119;-63
2023/03/06 02:01:26;;;;;;;3.40;2.88;;;;;;;-144.57;100.00;62443.72;5090012;28;20089;-61
2023/03/06 02:03:51;;;;;;;3.45;2.85;;;;;;;-144.57;100.00;62443.72;5089754;28;20425;-62
2023/03/06 02:06:20;;;;;;;5.93;3.22;;;;;;;-144.57;100.00;62443.72;5089906;28;20138;-61
2023/03/06 02:08:48;;;;;;;4.82;3.20;;;;;;;-144.57;100.00;62443.72;5091074;28;20440;-61
2023/03/06 02:11:17;;;;;;;4.43;2.90;;;;;;;-144.57;100.00;62443.72;5056442;28;20040;-60
2023/03/06 02:14:02;;;;;;;8.43;3.55;;;;;;;-144.57;100.00;62443.72;5090580;28;20044;-61
2023/03/06 02:16:30;;;;;;;4.13;2.83;;;;;;;-144.57;100.00;62443.72;5073110;28;20405;-60
2023/03/06 02:18:57;;;;;;;4.57;2.90;;;;;;;-144.57;100.00;62443.72;5089744;28;20047;-61
2023/03/06 02:21:26;;;;;;;6.40;3.20;;;;;;;-144.57;100.00;62443.72;5073027;28;20048;-62
2023/03/06 02:24:10;;;;;;;6.60;3.00;;;;;;;-144.57;100.00;62443.72;5072480;28;20079;-62
2023/03/06 02:26:36;;;;;;;3.72;2.70;;;;;;;-144.57;100.00;62443.72;5089980;28;20048;-61
2023/03/06 02:29:02;;;;;;;5.10;2.72;;;;;;;-144.57;100.00;62443.72;5056207;28;20040;-60
2023/03/06 02:31:30;;;;;;;3.88;2.63;;;;;;;-144.57;100.00;62443.72;5089638;28;20054;-62
2023/03/06 02:34:06;;;;;;;4.53;3.08;;;;;;;-144.57;100.00;62443.72;5089553;28;20048;-63
2023/03/06 02:36:40;;;;;;;6.78;2.95;;;;;;;-144.57;100.00;62443.72;5073136;28;20052;-62
2023/03/06 02:39:07;;;;;;;5.90;3.40;;;;;;;-144.57;100.00;62443.72;5089449;28;20056;-61
2023/03/06 02:41:33;;;;;;;6.22;3.45;;;;;;;-144.57;100.00;62443.72;5072863;28;20040;-62
2023/03/06 02:43:59;;;;;;;5.95;3.08;;;;;;;-144.57;100.00;62443.72;5090700;28;20421;-62
2023/03/06 02:46:24;;;;;;;4.65;3.25;;;;;;;-144.57;100.00;62443.72;5092505;28;20061;-61
2023/03/06 02:48:50;;;;;;;4.35;2.83;;;;;;;-144.57;100.00;62443.72;5094384;28;20065;-60
2023/03/06 02:51:16;;;;;;;3.30;2.67;;;;;;;-144.57;100.00;62443.72;5094604;28;20483;-61
2023/03/06 02:53:42;;;;;;;4.95;3.15;;;;;;;-144.57;100.00;62443.72;5093019;28;20634;-62
2023/03/06 02:56:08;;;;;;;4.43;2.88;;;;;;;-144.57;100.00;62443.72;5093092;28;20130;-61
2023/03/06 02:58:34;;;;;;;5.28;3.15;;;;;;;-144.57;100.00;62443.72;5076175;28;20440;-62
2023/03/06 03:01:00;;;;;;;7.05;3.47;;;;;;;-144.57;100.00;62443.72;5076020;28;20125;-62
2023/03/06 03:03:27;;;;;;;4.70;2.85;;;;;;;-144.57;100.00;62443.72;5092743;28;20475;-61
2023/03/06 03:05:53;;;;;;;4.78;3.28;;;;;;;-144.57;100.00;62443.72;5094239;28;20105;-61
2023/03/06 03:08:23;;;;;;;4.43;3.10;;;;;;;-144.57;100.00;62443.72;5093014;28;20402;-61
2023/03/06 03:10:55;;;;;;;4.45;3.20;;;;;;;-144.57;100.00;62443.72;5092859;28;20054;-62
2023/03/06 03:13:22;;;;;;;6.68;3.00;;;;;;;-144.57;100.00;62443.72;5092789;28;20090;-60
2023/03/06 03:16:06;;;;;;;5.65;3.38;;;;;;;-144.57;100.00;62443.72;5092703;28;20116;-62
2023/03/06 03:18:32;;;;;;;7.45;3.33;;;;;;;-144.57;100.00;62443.72;5059336;28;20097;-62
2023/03/06 03:20:58;;;;;;;6.07;3.90;;;;;;;-144.57;100.00;62443.72;5092690;28;20043;-61
2023/03/06 03:23:25;;;;;;;5.90;3.53;;;;;;;-144.57;100.00;62443.72;5092534;28;20056;-62
2023/03/06 03:25:51;;;;;;;5.70;3.47;;;;;;;-144.57;100.00;62443.72;5092110;28;20074;-63
2023/03/06 03:28:17;;;;;;;4.20;3.13;;;;;;;-144.57;100.00;62443.72;5092514;28;20067;-60
2023/03/06 03:30:44;;;;;;;5.28;3.30;;;;;;;-144.57;100.00;62443.72;5075297;28;20553;-60
2023/03/06 03:33:10;;;;;;;6.13;3.25;;;;;;;-144.57;100.00;62443.72;5075686;28;20048;-61
2023/03/06 03:35:37;;;;;;;5.25;3.50;;;;;;;-144.57;100.00;62443.72;5092284;28;20051;-60
2023/03/06 03:38:02;;;;;;;5.70;3.65;;;;;;;-144.57;100.00;62443.72;5075543;28;20445;-62
2023/03/06 03:40:28;;;;;;;6.07;3.85;;;;;;;-144.57;100.00;62443.72;5092119;28;20051;-62
2023/03/06 03:42:56;;;;;;;4.80;3.40;;;;;;;-144.57;100.00;62443.72;5075196;28;20054;-61
2023/03/06 03:45:22;;;;;;;5.07;3.47;;;;;;;-144.57;100.00;62443.72;5093509;28;20127;-61
2023/03/06 03:47:47;;;;;;;4.75;3.28;;;;;;;-144.57;100.00;62443.72;5093781;28;20177;-62
2023/03/06 03:50:13;;;;;;;5.95;3.55;;;;;;;-144.57;100.00;62443.72;5092152;28;20048;-63
2023/03/06 03:52:39;;;;;;;6.40;3.97;;;;;;;-144.57;100.00;62443.72;5075372;28;20052;-61
2023/03/06 03:55:06;;;;;;;5.88;3.78;;;;;;;-144.57;100.00;62443.72;5091980;28;20085;-64
2023/03/06 03:57:32;;;;;;;5.90;3.75;;;;;;;-144.57;100.00;62443.72;5093518;28;20059;-64
2023/03/06 03:59:58;;;;;;;5.50;3.70;;;;;;;-144.57;100.00;62443.72;5091451;28;20056;-62
2023/03/06 04:02:39;;;;;;;5.07;3.28;;;;;;;-144.57;100.00;62443.72;5093490;28;20040;-61
2023/03/06 04:05:22;;;;;;;5.72;3.70;;;;;;;-144.57;100.00;62443.72;5091861;28;20059;-61
2023/03/06 04:07:48;;;;;;;5.28;3.45;;;;;;;-144.57;100.00;62443.72;5092002;28;20040;-61
2023/03/06 04:10:14;;;;;;;6.95;4.13;;;;;;;-144.57;100.00;62443.72;5091550;28;20078;-63
2023/03/06 04:12:40;;;;;;;4.70;3.47;;;;;;;-144.57;100.00;62443.72;5074523;28;20048;-60
2023/03/06 04:15:08;;;;;;;7.70;4.25;;;;;;;-144.57;100.00;62443.72;5074627;28;20042;-61
2023/03/06 04:17:34;;;;;;;5.65;3.28;;;;;;;-144.57;100.00;62443.72;5092966;28;20101;-62
2023/03/06 04:20:03;;;;;;;5.03;3.38;;;;;;;-144.57;100.00;62443.72;5091029;28;20075;-63
2023/03/06 04:22:30;;;;;;;4.47;3.30;;;;;;;-144.57;100.00;62443.72;5091293;28;20048;-61
2023/03/06 04:24:56;;;;;;;6.20;3.83;;;;;;;-144.57;100.00;62443.72;5091093;28;20097;-61
2023/03/06 04:27:22;;;;;;;5.22;3.72;;;;;;;-144.57;100.00;62443.72;5074350;28;20044;-61
2023/03/06 04:29:48;;;;;;;6.78;3.80;;;;;;;-144.57;100.00;62443.72;5091130;28;20052;-62
2023/03/06 04:32:14;;;;;;;6.63;3.83;;;;;;;-144.57;100.00;62443.72;5091349;28;20113;-61
2023/03/06 04:34:40;;;;;;;7.32;3.80;;;;;;;-144.57;100.00;62443.72;5074162;28;20036;-61
2023/03/06 04:37:07;;;;;;;8.10;3.92;;;;;;;-144.57;100.00;62443.72;5074039;28;20052;-60
2023/03/06 04:39:33;;;;;;;5.70;3.33;;;;;;;-144.57;100.00;62443.72;5074158;28;20079;-61
2023/03/06 04:41:58;;;;;;;6.63;3.67;;;;;;;-144.57;100.00;62443.72;5091726;28;20079;-62
2023/03/06 04:44:24;;;;;;;7.70;3.90;;;;;;;-144.57;100.00;62443.72;5089149;28;20127;-62
2023/03/06 04:46:50;;;;;;;8.02;5.30;;;;;;;-144.57;100.00;62443.72;5090821;28;20043;-61
2023/03/06 04:49:16;;;;;;;8.25;4.88;;;;;;;-144.57;100.00;62443.72;5072468;28;20465;-61
2023/03/06 04:51:41;;;;;;;9.23;5.65;;;;;;;-144.57;100.00;62443.72;5090000;28;20177;-60
2023/03/06 04:54:07;;;;;;;9.07;5.72;;;;;;;-144.57;100.00;62443.72;5088756;28;20139;-61
2023/03/06 04:56:34;;;;;;;7.18;4.45;;;;;;;-144.57;100.00;62443.72;5088614;28;20044;-62
2023/03/06 04:58:59;;;;;;;7.20;4.18;;;;;;;-144.57;100.00;62443.72;5091423;28;20382;-62
2023/03/06 05:01:25;;;;;;;7.88;5.10;;;;;;;-144.57;100.00;62443.72;5073669;28;20068;-62
2023/03/06 05:03:51;;;;;;;8.15;4.07;;;;;;;-144.57;100.00;62443.72;5091927;28;20052;-62
2023/03/06 05:06:16;;;;;;;7.43;4.43;;;;;;;-144.57;100.00;62443.72;5090368;28;20036;-63
2023/03/06 05:08:42;;;;;;;7.32;4.50;;;;;;;-144.57;100.00;62443.72;5089995;28;20040;-61
2023/03/06 05:11:07;;;;;;;6.72;4.18;;;;;;;-144.57;100.00;62443.72;5092017;28;20051;-62
2023/03/06 05:13:33;;;;;;;9.35;5.22;;;;;;;-144.57;100.00;62443.72;5090412;28;20043;-61
2023/03/06 05:16:03;;;;;;;8.73;5.28;;;;;;;-144.57;100.00;62443.72;5090475;28;20058;-61
2023/03/06 05:18:30;;;;;;;7.40;4.65;;;;;;;-144.57;100.00;62443.72;5091660;28;20044;-60
2023/03/06 05:20:58;;;;;;;7.72;4.43;;;;;;;-144.57;100.00;62443.72;5091580;28;20490;-61
2023/03/06 05:23:25;;;;;;;7.50;4.30;;;;;;;-144.57;100.00;62443.72;5091445;28;20048;-61
2023/03/06 05:25:51;;;;;;;6.40;4.60;;;;;;;-144.57;100.00;62443.72;5073065;28;20458;-61
2023/03/06 05:28:16;;;;;;;7.13;4.10;;;;;;;-144.57;100.00;62443.72;5090396;28;20138;-62
2023/03/06 05:30:42;;;;;;;8.02;4.85;;;;;;;-144.57;100.00;62443.72;5089093;28;20036;-61
2023/03/06 05:33:08;;;;;;;7.22;4.93;;;;;;;-144.57;100.00;62443.72;5085143;28;20067;-61
2023/03/06 05:35:33;;;;;;;8.82;4.53;;;;;;;-144.57;100.00;62443.72;5088761;28;20040;-61
2023/03/06 05:37:59;;;;;;;6.35;3.78;;;;;;;-144.57;100.00;62443.72;5091101;28;20067;-60
2023/03/06 05:40:25;;;;;;;6.40;3.90;;;;;;;-144.57;100.00;62443.72;5091136;28;20076;-63
2023/03/06 05:42:50;;;;;;;6.10;4.40;;;;;;;-144.57;100.00;62443.72;5089190;28;20047;-61
2023/03/06 05:45:16;;;;;;;8.68;5.30;;;;;;;-144.57;100.00;62443.72;5070389;28;20043;-62
2023/03/06 05:47:42;;;;;;;9.20;4.63;;;;;;;-144.57;100.00;62443.72;5089530;28;20056;-61
2023/03/06 05:50:09;;;;;;;6.70;4.60;;;;;;;-144.57;100.00;62443.72;5090290;28;20048;-62
2023/03/06 05:52:35;;;;;;;7.13;4.47;;;;;;;-144.57;100.00;62443.72;5088324;28;20044;-61
2023/03/06 05:55:01;;;;;;;6.43;4.30;;;;;;;-144.57;100.00;62443.72;5087481;28;20137;-62
2023/03/06 05:57:26;;;;;;;7.13;4.47;;;;;;;-144.57;100.00;62443.72;5089434;28;20078;-62
2023/03/06 05:59:52;;;;;;;5.72;3.92;;;;;;;-144.57;100.00;62443.72;5088821;28;20060;-62
2023/03/06 06:02:18;;;;;;;6.85;3.83;;;;;;;-144.57;100.00;62443.72;5089432;28;20056;-61
2023/03/06 06:04:44;;;;;;;5.38;3.80;;;;;;;-144.57;100.00;62443.72;5090163;28;20127;-62
2023/03/06 06:07:17;;;;;;;6.60;4.22;;;;;;;-144.57;100.00;62443.72;5093982;28;20123;-61
2023/03/06 06:09:52;;;;;;;4.88;3.70;;;;;;;-144.57;100.00;62443.72;5053566;28;20521;-61
2023/03/06 06:12:17;;;;;;;4.68;3.78;;;;;;;-144.57;100.00;62443.72;5089880;28;20105;-61
2023/03/06 06:14:43;;;;;;;6.78;3.78;;;;;;;-144.57;100.00;62443.72;5087207;28;20036;-62
2023/03/06 06:17:11;;;;;;;7.75;4.00;;;;;;;-144.57;100.00;62443.72;5088993;28;20032;-64
2023/03/06 06:19:37;;;;;;;6.00;3.65;;;;;;;-144.57;100.00;62443.72;5088787;28;20421;-61
2023/03/06 06:22:03;;;;;;;5.45;3.72;;;;;;;-144.57;100.00;62443.72;5092139;28;20048;-61
2023/03/06 06:24:29;;;;;;;4.65;3.05;;;;;;;-144.57;100.00;62443.72;5092554;28;20036;-61
2023/03/06 06:26:56;;;;;;;6.20;3.70;;;;;;;-144.57;100.00;62443.72;5091045;28;20471;-60
2023/03/06 06:29:22;;;;;;;5.30;3.40;;;;;;;-144.57;100.00;62443.72;5091798;28;20525;-62
2023/03/06 06:31:49;;;;;;;4.43;2.78;;;;;;;-144.57;100.00;62443.72;5075746;28;20044;-61
2023/03/06 06:34:15;;;;;;;4.50;3.03;;;;;;;-144.57;100.00;62443.72;5076158;28;20044;-63
2023/03/06 06:36:41;;;;;;;3.90;2.95;;;;;;;-144.57;100.00;62443.72;5093982;28;20059;-61
2023/03/06 06:39:07;;;;;;;4.38;3.13;;;;;;;-144.57;100.00;62443.72;5094368;28;20052;-60
2023/03/06 06:41:34;;;;;;;4.47;3.08;;;;;;;-144.57;100.00;62443.72;5094784;28;20455;-62
2023/03/06 06:44:00;;;;;;;3.75;2.85;;;;;;;-144.57;100.00;62443.72;5093228;28;20043;-60
2023/03/06 06:46:26;;;;;;;5.68;3.40;;;;;;;-144.57;100.00;62443.72;5094152;28;20055;-61
2023/03/06 06:48:55;;;;;;;3.78;2.88;;;;;;;-144.57;100.00;62443.72;5094277;28;20075;-61
2023/03/06 06:51:21;;;;;;;5.65;3.30;;;;;;;-144.57;100.00;62443.72;5093094;28;20084;-61
2023/03/06 06:53:50;;;;;;;5.13;3.20;;;;;;;-144.57;100.00;62443.72;5093447;28;20050;-62
2023/03/06 06:56:16;;;;;;;5.13;3.00;;;;;;;-144.57;100.00;62443.72;5092991;28;20134;-62
2023/03/06 06:58:42;;;;;;;6.05;3.95;;;;;;;-144.57;100.00;62443.72;5093222;28;20147;-63
2023/03/06 07:01:10;;;;;;;4.82;3.17;;;;;;;-144.57;100.00;62443.72;5091162;28;20078;-63
2023/03/06 07:03:36;;;;;;;3.72;2.92;;;;;;;-144.57;100.00;62443.72;5091989;28;20051;-59
2023/03/06 07:06:03;;;;;;;6.20;3.60;;;;;;;-144.57;100.00;62443.72;5093682;28;20067;-60
2023/03/06 07:08:29;;;;;;;4.95;3.08;;;;;;;-144.57;100.00;62443.72;5093605;28;20097;-60
2023/03/06 07:10:55;;;;;;;7.10;3.35;;;;;;;-144.57;100.00;62443.72;5093450;28;20500;-62
2023/03/06 07:13:20;;;;;;;6.15;3.83;;;;;;;-144.57;100.00;62443.72;5093632;28;20048;-61
2023/03/06 07:15:46;;;;;;;6.80;3.80;;;;;;;-144.57;100.00;62443.72;5093942;28;20043;-61
2023/03/06 07:18:12;;;;;;;4.38;3.08;;;;;;;-144.57;100.00;62443.72;5093568;28;20092;-62
2023/03/06 07:20:37;;;;;;;4.45;3.03;;;;;;;-144.57;100.00;62443.72;5093404;28;20051;-61
2023/03/06 07:23:03;;;;;;;3.67;3.05;;;;;;;-144.57;100.00;62443.72;5075487;28;20343;-62
2023/03/06 07:25:29;;;;;;;7.07;3.60;;;;;;;-144.57;100.00;62443.72;5091761;28;20040;-63
2023/03/06 07:27:54;;;;;;;5.03;2.85;;;;;;;-144.57;100.00;62443.72;5093070;28;20048;-60
2023/03/06 07:30:22;;;;;;;4.47;3.05;;;;;;;-144.57;100.00;62443.72;5092482;28;20432;-61
2023/03/06 07:32:51;;;;;;;6.10;3.25;;;;;;;-144.57;100.00;62443.72;5090349;28;20048;-60
2023/03/06 07:35:17;;;;;;;4.53;2.90;;;;;;;-144.57;100.00;62443.72;5091622;28;20110;-62
2023/03/06 07:37:42;;;;;;;4.22;3.30;;;;;;;-144.57;100.00;62443.72;5091971;28;20577;-61
2023/03/06 07:40:09;;;;;;;4.32;3.08;;;;;;;-144.57;100.00;62443.72;5091526;28;20566;-62
2023/03/06 07:42:35;;;;;;;5.90;3.33;;;;;;;-144.57;100.00;62443.72;5090053;28;20072;-60
2023/03/06 07:45:02;;;;;;;4.63;3.08;;;;;;;-144.57;100.00;62443.72;5090729;28;20105;-61
2023/03/06 07:47:28;;;;;;;4.57;3.17;;;;;;;-144.57;100.00;62443.72;5093823;28;20047;-61
2023/03/06 07:49:58;;;;;;;5.38;3.25;;;;;;;-144.57;100.00;62443.72;5091863;28;20504;-61
2023/03/06 07:52:23;;;;;;;4.25;3.35;;;;;;;-144.57;100.00;62443.72;5093424;28;20469;-62
2023/03/06 07:54:49;;;;;;;4.68;2.95;;;;;;;-144.57;100.00;62443.72;5074863;28;20043;-61
2023/03/06 07:57:15;;;;;;;4.45;3.35;;;;;;;-144.57;100.00;62443.72;5093094;28;20043;-62
2023/03/06 07:59:41;;;;;;;4.63;3.30;;;;;;;-144.57;100.00;62443.72;5091850;28;20413;-62
2023/03/06 08:02:06;;;;;;;4.32;3.17;;;;;;;-144.57;100.00;62443.72;5091830;28;20066;-62
2023/03/06 08:04:33;;;;;;;6.93;3.58;;;;;;;-144.57;100.00;62443.72;5092812;28;20068;-62
2023/03/06 08:06:59;;;;;;;6.75;2.88;;;;;;;-144.57;100.00;62443.72;5093138;28;20401;-63
2023/03/06 08:09:25;;;;;;;4.40;3.10;;;;;;;-144.57;100.00;62443.72;5091579;28;20497;-61
2023/03/06 08:11:51;;;;;;;4.68;3.17;;;;;;;-144.57;100.00;62443.72;5085537;28;20044;-61
2023/03/06 08:14:16;;;;;;;3.65;2.30;;;;;;;-144.57;100.00;62443.72;5089924;28;20490;-61
2023/03/06 08:16:42;;;;;;;2.90;2.20;;;;;;;-144.57;100.00;62443.72;5091404;28;20044;-62
2023/03/06 08:19:08;;;;;;;2.47;2.15;;;;;;;-144.57;100.00;62443.72;5090423;28;20033;-61
2023/03/06 08:21:34;;;;;;;3.08;2.40;;;;;;;-144.57;100.00;62443.72;5090622;28;20051;-63
2023/03/06 08:23:59;;;;;;;4.90;2.47;;;;;;;-144.57;100.00;62443.72;5091237;28;20075;-63
2023/03/06 08:26:27;;;;;;;5.47;3.08;;;;;;;-144.57;100.00;62443.72;5092761;28;20040;-60
2023/03/06 08:28:55;;;;;;;3.80;3.13;;;;;;;-144.57;100.00;62443.72;5093102;28;20401;-63
2023/03/06 08:31:32;;;;;;;3.85;2.90;;;;;;;-144.57;100.00;62443.72;5092630;28;20040;-61
2023/03/06 08:34:00;;;;;;;5.05;3.00;;;;;;;-144.57;100.00;62443.72;5091160;28;20493;-61
2023/03/06 08:36:26;;;;;;;6.47;2.88;;;;;;;-144.57;100.00;62443.72;5091023;28;20044;-63
2023/03/06 08:38:52;;;;;;;4.40;2.58;;;;;;;-144.57;100.00;62443.72;5092330;28;20108;-61
2023/03/06 08:41:19;;;;;;;4.57;2.35;;;;;;;-144.57;100.00;62443.72;5092361;28;20068;-60
2023/03/06 08:43:44;;;;;;;5.65;2.83;;;;;;;-144.57;100.00;62443.72;5090985;28;20100;-61
2023/03/06 08:46:10;;;;;;;4.63;2.78;;;;;;;-144.57;100.00;62443.72;5091990;28;20138;-61
2023/03/06 08:48:36;;;;;;;4.65;2.95;;;;;;;-144.57;100.00;62443.72;5092380;28;20039;-60
2023/03/06 08:51:02;;;;;;;5.75;2.70;;;;;;;-144.57;100.00;62443.72;5092233;28;20113;-60
2023/03/06 08:53:28;;;;;;;4.15;3.05;;;;;;;-144.57;100.00;62443.72;5073930;28;20127;-60
2023/03/06 08:55:54;;;;;;;7.40;3.20;;;;;;;-144.57;100.00;62443.72;5090888;28;20051;-61
2023/03/06 08:58:20;;;;;;;7.38;3.10;;;;;;;-144.57;100.00;62443.72;5090917;28;20479;-61
2023/03/06 09:00:45;;;;;;;7.38;3.25;;;;;;;-144.57;100.00;62443.72;5091789;28;20048;-62
2023/03/06 09:03:11;;;;;;;7.00;3.13;;;;;;;-144.57;100.00;62443.72;5091834;28;20048;-59
2023/03/06 09:05:38;;;;;;;8.77;3.50;;;;;;;-144.57;100.00;62443.72;5091783;28;20576;-59
2023/03/06 09:08:05;;;;;;;6.15;3.42;;;;;;;-144.57;100.00;62443.72;5090660;28;20044;-60
2023/03/06 09:10:30;;;;;;;9.40;3.78;;;;;;;-144.57;100.00;62443.72;5091864;28;20127;-61
2023/03/06 09:12:56;;;;;;;5.63;2.58;;;;;;;-144.57;100.00;62443.72;5091681;28;20134;-59
2023/03/06 09:15:22;;;;;;;4.15;2.80;;;;;;;-144.57;100.00;62443.72;5091720;28;20044;-63
2023/03/06 09:17:47;;;;;;;4.43;2.47;;;;;;;-144.57;100.00;62443.72;5090696;28;20048;-61
2023/03/06 09:20:14;;;;;;;4.35;2.28;;;;;;;-144.57;100.00;62443.72;5091872;28;20724;-60
2023/03/06 09:22:41;;;;;;;4.10;2.30;;;;;;;-144.57;100.00;62443.72;5090415;28;20064;-59
2023/03/06 09:25:08;;;;;;;5.28;2.38;;;;;;;-144.57;100.00;62443.72;5091634;28;20123;-60
2023/03/06 09:27:34;;;;;;;2.17;1.98;;;;;;;-144.57;100.00;62443.72;5091836;28;20044;-61
2023/03/06 09:30:00;;;;;;;2.42;2.20;;;;;;;-144.57;100.00;62443.72;5110311;28;20126;-61
2023/03/06 09:32:26;;;;;;;3.85;2.40;;;;;;;-144.57;100.00;62443.72;5091074;28;20047;-61
2023/03/06 09:34:52;;;;;;;3.40;2.50;;;;;;;-144.57;100.00;62443.72;5090132;28;20131;-61
2023/03/06 09:37:17;;;;;;;3.78;2.25;;;;;;;-144.57;100.00;62443.72;5091957;28;20044;-62
2023/03/06 09:39:43;;;;;;;3.95;2.70;;;;;;;-144.57;100.00;62443.72;5091451;28;20040;-63
2023/03/06 09:42:13;;;;;;;5.78;2.88;;;;;;;-144.57;100.00;62443.72;5091896;28;20333;-61
2023/03/06 09:44:42;;;;;;;5.15;3.03;;;;;;;-144.57;100.00;62443.72;5073494;28;20046;-60
2023/03/06 09:47:13;;;;;;;3.75;2.90;;;;;;;-144.57;100.00;62443.72;5090188;28;20144;-61
2023/03/06 09:50:08;;;;;;;3.40;2.67;;;;;;;-144.57;100.00;62443.72;5089725;28;20123;-62
2023/03/06 09:52:40;;;;;;;5.28;2.95;;;;;;;-144.57;100.00;62443.72;5090206;28;20602;-61
2023/03/06 09:55:20;;;;;;;3.85;2.60;;;;;;;-144.57;100.00;62443.72;5093220;28;20028;-62
2023/03/06 09:57:51;;;;;;;3.75;2.78;;;;;;;-144.57;100.00;62443.72;5098614;28;20055;-62
2023/03/06 10:00:40;;;;;;;2.97;2.40;;;;;;;-144.57;100.00;62443.72;5097874;28;20509;-61
2023/03/06 10:03:30;;;;;;;3.33;2.75;;;;;;;-144.57;100.00;62443.72;5097944;28;20059;-62
2023/03/06 10:06:30;;;;;;;3.73;2.70;;;;;;;-144.57;100.00;62443.72;5094850;28;20075;-62
2023/03/06 10:09:10;;;;;;;4.90;2.80;;;;;;;-144.57;100.00;62443.72;5048013;28;20134;-62
2023/03/06 10:11:41;;;;;;;3.28;2.17;;;;;;;-144.57;100.00;62443.72;5096293;28;20238;-60
2023/03/06 10:14:30;;;;;;;3.33;2.53;;;;;;;-144.57;100.00;62443.72;5093352;28;20044;-61
2023/03/06 10:16:57;;;;;;;5.78;3.03;;;;;;;-144.57;100.00;62443.72;5094315;28;20044;-62
2023/03/06 10:19:28;;;;;;;5.43;3.20;;;;;;;-144.57;100.00;62443.72;5094846;28;20040;-62
2023/03/06 10:22:02;;;;;;;5.10;3.20;;;;;;;-144.57;100.00;62443.72;5095234;28;20558;-61
2023/03/06 10:24:44;;;;;;;4.18;2.78;;;;;;;-144.57;100.00;62443.72;5096913;28;20047;-59
2023/03/06 10:27:16;;;;;;;7.93;3.05;;;;;;;-144.57;100.00;62443.72;5096425;28;20459;-62
2023/03/06 10:29:45;;;;;;;4.65;2.90;;;;;;;-144.57;100.00;62443.72;5095095;28;20097;-60
2023/03/06 10:32:37;;;;;;;3.88;2.92;;;;;;;-144.57;100.00;62443.72;5096623;28;20036;-63
2023/03/06 10:35:15;;;;;;;2.85;2.50;;;;;;;-144.57;100.00;62443.72;5095190;28;20039;-62
2023/03/06 10:37:40;;;;;;;3.85;2.80;;;;;;;-144.57;100.00;62443.72;5093884;28;20052;-61
2023/03/06 10:40:16;;;;;;;3.78;2.50;;;;;;;-144.57;100.00;62443.72;5096464;28;20410;-62
2023/03/06 10:42:42;;;;;;;4.53;2.97;;;;;;;-144.57;100.00;62443.72;5094213;28;20092;-61
2023/03/06 10:45:13;;;;;;;3.60;2.50;;;;;;;-144.57;100.00;62443.72;5096128;28;20044;-62
2023/03/06 10:47:39;;;;;;;3.42;2.67;;;;;;;-144.57;100.00;62443.72;5094544;28;20149;-62
2023/03/06 10:50:19;;;;;;;3.17;2.38;;;;;;;-144.57;100.00;62443.72;5095786;28;20077;-63
2023/03/06 10:52:58;;;;;;;2.35;2.00;;;;;;;-144.57;100.00;62443.72;5079145;28;20455;-62
2023/03/06 10:55:29;;;;;;;3.45;2.28;;;;;;;-144.57;100.00;62443.72;5095940;28;20039;-62
2023/03/06 10:57:55;;;;;;;3.40;1.70;;;;;;;-144.57;100.00;62443.72;5093685;28;20139;-63
2023/03/06 11:00:27;;;;;;;4.68;1.73;;;;;;;-144.57;100.00;62443.72;5095533;28;20127;-61
2023/03/06 11:03:13;;;;;;;1.70;1.60;;;;;;;-144.57;100.00;62443.72;5095402;28;20056;-61
2023/03/06 11:05:38;;;;;;;1.88;1.50;;;;;;;-144.57;100.00;62443.72;5094255;28;20040;-62
2023/03/06 11:08:06;;;;;;;3.10;1.50;;;;;;;-144.57;100.00;62443.72;5091299;28;20039;-61
2023/03/06 11:10:33;;;;;;;2.95;1.60;;;;;;;-144.57;100.00;62443.72;5092452;28;20344;-61
2023/03/06 11:13:03;;;;;;;2.35;1.67;;;;;;;-144.57;100.00;62443.72;5092596;28;20084;-62